sensor_id;sensor_type;location;lat;lon;timestamp;P1;durP1;ratioP1;P2;durP2;ratioP2
21868;SDS011;11099;41.564;23.296;2024-02-15T00:02:14;11.02;;;6.60;;
21868;SDS011;11099;41.564;23.296;2024-02-15T00:04:40;9.00;;;6.90;;
21868;SDS011;11099;41.564;23.296;2024-02-15T00:07:29;9.13;;;6.38;;
21868;SDS011;11099;41.564;23.296;2024-02-15T00:10:04;7.95;;;6.13;;
21868;SDS011;11099;41.564;23.296;2024-02-15T00:12:34;7.80;;;6.15;;
21868;SDS011;11099;41.564;23.296;2024-02-15T00:15:00;9.70;;;6.47;;
21868;SDS011;11099;41.564;23.296;2024-02-15T00:17:29;10.98;;;6.45;;
21868;SDS011;11099;41.564;23.296;2024-02-15T00:19:56;6.68;;;5.93;;
21868;SDS011;11099;41.564;23.296;2024-02-15T00:22:24;7.82;;;6.53;;
21868;SDS011;11099;41.564;23.296;2024-02-15T00:24:51;10.45;;;6.72;;
21868;SDS011;11099;41.564;23.296;2024-02-15T00:27:17;9.57;;;7.03;;
21868;SDS011;11099;41.564;23.296;2024-02-15T00:29:53;9.25;;;6.97;;
21868;SDS011;11099;41.564;23.296;2024-02-15T00:32:21;9.27;;;7.53;;
21868;SDS011;11099;41.564;23.296;2024-02-15T00:34:50;9.52;;;7.10;;
21868;SDS011;11099;41.564;23.296;2024-02-15T00:37:37;8.32;;;7.07;;
21868;SDS011;11099;41.564;23.296;2024-02-15T00:40:10;8.00;;;6.68;;
21868;SDS011;11099;41.564;23.296;2024-02-15T00:42:38;10.07;;;7.83;;
21868;SDS011;11099;41.564;23.296;2024-02-15T00:45:04;9.88;;;7.38;;
21868;SDS011;11099;41.564;23.296;2024-02-15T00:47:33;8.65;;;6.80;;
21868;SDS011;11099;41.564;23.296;2024-02-15T00:50:00;9.50;;;7.35;;
21868;SDS011;11099;41.564;23.296;2024-02-15T00:52:31;10.52;;;7.53;;
21868;SDS011;11099;41.564;23.296;2024-02-15T00:54:59;8.77;;;7.43;;
21868;SDS011;11099;41.564;23.296;2024-02-15T00:57:47;11.07;;;7.20;;
21868;SDS011;11099;41.564;23.296;2024-02-15T01:00:22;10.02;;;6.78;;
21868;SDS011;11099;41.564;23.296;2024-02-15T01:03:04;10.18;;;8.23;;
21868;SDS011;11099;41.564;23.296;2024-02-15T01:05:55;8.02;;;6.95;;
21868;SDS011;11099;41.564;23.296;2024-02-15T01:08:25;8.50;;;6.85;;
21868;SDS011;11099;41.564;23.296;2024-02-15T01:10:53;9.77;;;7.15;;
21868;SDS011;11099;41.564;23.296;2024-02-15T01:13:20;7.38;;;6.53;;
21868;SDS011;11099;41.564;23.296;2024-02-15T01:15:56;7.97;;;7.03;;
21868;SDS011;11099;41.564;23.296;2024-02-15T01:18:40;9.88;;;8.02;;
21868;SDS011;11099;41.564;23.296;2024-02-15T01:21:08;10.18;;;7.25;;
21868;SDS011;11099;41.564;23.296;2024-02-15T01:23:39;8.93;;;7.25;;
21868;SDS011;11099;41.564;23.296;2024-02-15T01:28:36;9.25;;;6.93;;
21868;SDS011;11099;41.564;23.296;2024-02-15T01:31:04;10.50;;;7.50;;
21868;SDS011;11099;41.564;23.296;2024-02-15T01:33:32;8.25;;;7.07;;
21868;SDS011;11099;41.564;23.296;2024-02-15T01:35:58;8.18;;;7.25;;
21868;SDS011;11099;41.564;23.296;2024-02-15T01:38:27;9.27;;;7.50;;
21868;SDS011;11099;41.564;23.296;2024-02-15T01:40:54;9.77;;;7.32;;
21868;SDS011;11099;41.564;23.296;2024-02-15T01:43:26;10.10;;;7.30;;
21868;SDS011;11099;41.564;23.296;2024-02-15T01:46:51;8.85;;;7.93;;
21868;SDS011;11099;41.564;23.296;2024-02-15T01:49:25;8.70;;;7.40;;
21868;SDS011;11099;41.564;23.296;2024-02-15T01:52:00;10.27;;;7.75;;
21868;SDS011;11099;41.564;23.296;2024-02-15T01:54:32;8.45;;;7.13;;
21868;SDS011;11099;41.564;23.296;2024-02-15T01:57:01;11.00;;;8.45;;
21868;SDS011;11099;41.564;23.296;2024-02-15T01:59:31;9.40;;;8.00;;
21868;SDS011;11099;41.564;23.296;2024-02-15T02:01:58;10.35;;;7.57;;
21868;SDS011;11099;41.564;23.296;2024-02-15T02:04:32;9.27;;;7.28;;
21868;SDS011;11099;41.564;23.296;2024-02-15T02:07:18;10.10;;;8.15;;
21868;SDS011;11099;41.564;23.296;2024-02-15T02:09:48;8.32;;;7.53;;
21868;SDS011;11099;41.564;23.296;2024-02-15T02:12:15;10.43;;;8.07;;
21868;SDS011;11099;41.564;23.296;2024-02-15T02:14:44;12.23;;;8.45;;
21868;SDS011;11099;41.564;23.296;2024-02-15T02:17:16;10.55;;;7.82;;
21868;SDS011;11099;41.564;23.296;2024-02-15T02:19:45;10.68;;;8.00;;
21868;SDS011;11099;41.564;23.296;2024-02-15T02:22:12;9.38;;;7.82;;
21868;SDS011;11099;41.564;23.296;2024-02-15T02:27:36;9.10;;;7.70;;
21868;SDS011;11099;41.564;23.296;2024-02-15T02:30:04;12.87;;;7.53;;
21868;SDS011;11099;41.564;23.296;2024-02-15T02:32:43;9.25;;;7.78;;
21868;SDS011;11099;41.564;23.296;2024-02-15T02:35:13;9.23;;;8.23;;
21868;SDS011;11099;41.564;23.296;2024-02-15T02:40:13;9.98;;;7.90;;
21868;SDS011;11099;41.564;23.296;2024-02-15T02:42:53;10.98;;;7.85;;
21868;SDS011;11099;41.564;23.296;2024-02-15T02:45:28;7.97;;;7.13;;
21868;SDS011;11099;41.564;23.296;2024-02-15T02:48:02;9.60;;;7.85;;
21868;SDS011;11099;41.564;23.296;2024-02-15T02:50:35;8.68;;;7.13;;
21868;SDS011;11099;41.564;23.296;2024-02-15T02:53:02;11.38;;;7.32;;
21868;SDS011;11099;41.564;23.296;2024-02-15T02:55:37;12.13;;;8.00;;
21868;SDS011;11099;41.564;23.296;2024-02-15T02:58:06;9.85;;;7.57;;
21868;SDS011;11099;41.564;23.296;2024-02-15T03:00:38;12.13;;;8.00;;
21868;SDS011;11099;41.564;23.296;2024-02-15T03:03:27;12.48;;;8.52;;
21868;SDS011;11099;41.564;23.296;2024-02-15T03:05:54;10.50;;;8.40;;
21868;SDS011;11099;41.564;23.296;2024-02-15T03:08:23;11.10;;;7.97;;
21868;SDS011;11099;41.564;23.296;2024-02-15T03:10:55;12.77;;;8.00;;
21868;SDS011;11099;41.564;23.296;2024-02-15T03:13:24;8.70;;;7.30;;
21868;SDS011;11099;41.564;23.296;2024-02-15T03:15:53;13.13;;;8.32;;
21868;SDS011;11099;41.564;23.296;2024-02-15T03:18:30;12.57;;;7.97;;
21868;SDS011;11099;41.564;23.296;2024-02-15T03:20:58;12.02;;;7.75;;
21868;SDS011;11099;41.564;23.296;2024-02-15T03:23:26;12.90;;;7.25;;
21868;SDS011;11099;41.564;23.296;2024-02-15T03:25:55;12.13;;;7.80;;
21868;SDS011;11099;41.564;23.296;2024-02-15T03:28:23;9.57;;;7.40;;
21868;SDS011;11099;41.564;23.296;2024-02-15T03:30:53;9.98;;;7.95;;
21868;SDS011;11099;41.564;23.296;2024-02-15T03:33:27;9.38;;;8.05;;
21868;SDS011;11099;41.564;23.296;2024-02-15T03:35:59;12.02;;;8.60;;
21868;SDS011;11099;41.564;23.296;2024-02-15T03:38:27;9.90;;;7.78;;
21868;SDS011;11099;41.564;23.296;2024-02-15T03:43:25;11.07;;;7.53;;
21868;SDS011;11099;41.564;23.296;2024-02-15T03:45:55;13.65;;;7.95;;
21868;SDS011;11099;41.564;23.296;2024-02-15T03:51:35;11.07;;;8.82;;
21868;SDS011;11099;41.564;23.296;2024-02-15T03:54:04;8.85;;;7.28;;
21868;SDS011;11099;41.564;23.296;2024-02-15T03:59:19;8.48;;;7.55;;
21868;SDS011;11099;41.564;23.296;2024-02-15T04:01:53;10.25;;;7.88;;
21868;SDS011;11099;41.564;23.296;2024-02-15T04:10:12;12.05;;;7.88;;
21868;SDS011;11099;41.564;23.296;2024-02-15T04:12:40;10.35;;;7.95;;
21868;SDS011;11099;41.564;23.296;2024-02-15T04:15:23;11.70;;;8.18;;
21868;SDS011;11099;41.564;23.296;2024-02-15T04:17:49;14.10;;;8.23;;
21868;SDS011;11099;41.564;23.296;2024-02-15T04:20:21;12.15;;;7.75;;
21868;SDS011;11099;41.564;23.296;2024-02-15T04:22:56;8.60;;;7.28;;
21868;SDS011;11099;41.564;23.296;2024-02-15T04:28:07;9.93;;;8.25;;
21868;SDS011;11099;41.564;23.296;2024-02-15T04:35:46;9.23;;;7.22;;
21868;SDS011;11099;41.564;23.296;2024-02-15T04:38:32;11.13;;;7.35;;
21868;SDS011;11099;41.564;23.296;2024-02-15T04:41:10;10.88;;;7.78;;
21868;SDS011;11099;41.564;23.296;2024-02-15T04:43:51;10.07;;;7.20;;
21868;SDS011;11099;41.564;23.296;2024-02-15T04:46:28;8.48;;;6.72;;
21868;SDS011;11099;41.564;23.296;2024-02-15T04:48:59;11.32;;;7.75;;
21868;SDS011;11099;41.564;23.296;2024-02-15T04:54:07;10.57;;;7.75;;
21868;SDS011;11099;41.564;23.296;2024-02-15T04:59:37;9.55;;;7.85;;
21868;SDS011;11099;41.564;23.296;2024-02-15T05:10:26;10.55;;;7.82;;
21868;SDS011;11099;41.564;23.296;2024-02-15T05:12:53;12.93;;;8.25;;
21868;SDS011;11099;41.564;23.296;2024-02-15T05:21:05;14.65;;;9.27;;
21868;SDS011;11099;41.564;23.296;2024-02-15T05:23:36;10.70;;;8.68;;
21868;SDS011;11099;41.564;23.296;2024-02-15T05:26:08;12.93;;;8.40;;
21868;SDS011;11099;41.564;23.296;2024-02-15T05:28:49;10.95;;;8.75;;
21868;SDS011;11099;41.564;23.296;2024-02-15T05:31:19;11.18;;;7.95;;
21868;SDS011;11099;41.564;23.296;2024-02-15T05:33:50;14.75;;;9.20;;
21868;SDS011;11099;41.564;23.296;2024-02-15T05:42:11;13.60;;;8.23;;
21868;SDS011;11099;41.564;23.296;2024-02-15T05:44:54;10.73;;;7.72;;
21868;SDS011;11099;41.564;23.296;2024-02-15T05:47:58;10.50;;;7.35;;
21868;SDS011;11099;41.564;23.296;2024-02-15T05:50:28;11.90;;;8.35;;
21868;SDS011;11099;41.564;23.296;2024-02-15T05:52:56;11.82;;;8.07;;
21868;SDS011;11099;41.564;23.296;2024-02-15T05:55:31;11.13;;;7.90;;
21868;SDS011;11099;41.564;23.296;2024-02-15T05:58:01;11.05;;;7.90;;
21868;SDS011;11099;41.564;23.296;2024-02-15T06:00:32;10.95;;;7.35;;
21868;SDS011;11099;41.564;23.296;2024-02-15T06:03:04;12.70;;;8.80;;
21868;SDS011;11099;41.564;23.296;2024-02-15T06:05:43;9.65;;;7.47;;
21868;SDS011;11099;41.564;23.296;2024-02-15T06:08:13;9.30;;;7.22;;
21868;SDS011;11099;41.564;23.296;2024-02-15T06:10:45;9.20;;;7.63;;
21868;SDS011;11099;41.564;23.296;2024-02-15T06:13:31;10.07;;;7.10;;
21868;SDS011;11099;41.564;23.296;2024-02-15T06:16:02;13.38;;;7.40;;
21868;SDS011;11099;41.564;23.296;2024-02-15T06:18:34;11.13;;;6.90;;
21868;SDS011;11099;41.564;23.296;2024-02-15T06:21:09;12.82;;;8.70;;
21868;SDS011;11099;41.564;23.296;2024-02-15T06:23:38;10.65;;;8.30;;
21868;SDS011;11099;41.564;23.296;2024-02-15T06:26:05;13.90;;;8.73;;
21868;SDS011;11099;41.564;23.296;2024-02-15T06:28:32;9.38;;;7.30;;
21868;SDS011;11099;41.564;23.296;2024-02-15T06:31:20;11.80;;;8.20;;
21868;SDS011;11099;41.564;23.296;2024-02-15T06:34:07;13.05;;;8.40;;
21868;SDS011;11099;41.564;23.296;2024-02-15T06:36:54;9.68;;;8.20;;
21868;SDS011;11099;41.564;23.296;2024-02-15T06:39:46;15.90;;;7.45;;
21868;SDS011;11099;41.564;23.296;2024-02-15T06:42:17;13.13;;;9.77;;
21868;SDS011;11099;41.564;23.296;2024-02-15T06:44:47;14.15;;;7.82;;
21868;SDS011;11099;41.564;23.296;2024-02-15T06:47:17;9.23;;;7.07;;
21868;SDS011;11099;41.564;23.296;2024-02-15T06:49:45;11.13;;;7.55;;
21868;SDS011;11099;41.564;23.296;2024-02-15T06:52:14;11.38;;;7.47;;
21868;SDS011;11099;41.564;23.296;2024-02-15T06:55:08;10.15;;;7.57;;
21868;SDS011;11099;41.564;23.296;2024-02-15T06:57:42;12.20;;;7.45;;
21868;SDS011;11099;41.564;23.296;2024-02-15T07:00:09;10.77;;;7.18;;
21868;SDS011;11099;41.564;23.296;2024-02-15T07:02:43;14.30;;;7.35;;
21868;SDS011;11099;41.564;23.296;2024-02-15T07:05:20;18.98;;;10.68;;
21868;SDS011;11099;41.564;23.296;2024-02-15T07:08:35;23.55;;;13.65;;
21868;SDS011;11099;41.564;23.296;2024-02-15T07:11:06;13.88;;;9.95;;
21868;SDS011;11099;41.564;23.296;2024-02-15T07:13:39;17.23;;;12.10;;
21868;SDS011;11099;41.564;23.296;2024-02-15T07:16:09;12.68;;;8.15;;
21868;SDS011;11099;41.564;23.296;2024-02-15T07:18:36;11.43;;;7.28;;
21868;SDS011;11099;41.564;23.296;2024-02-15T07:21:04;9.15;;;7.55;;
21868;SDS011;11099;41.564;23.296;2024-02-15T07:26:12;12.95;;;7.22;;
21868;SDS011;11099;41.564;23.296;2024-02-15T07:28:56;11.75;;;6.95;;
21868;SDS011;11099;41.564;23.296;2024-02-15T07:31:28;13.02;;;7.82;;
21868;SDS011;11099;41.564;23.296;2024-02-15T07:34:00;11.23;;;7.32;;
21868;SDS011;11099;41.564;23.296;2024-02-15T07:36:36;9.32;;;6.78;;
21868;SDS011;11099;41.564;23.296;2024-02-15T07:39:05;10.35;;;6.78;;
21868;SDS011;11099;41.564;23.296;2024-02-15T07:41:36;13.30;;;7.47;;
21868;SDS011;11099;41.564;23.296;2024-02-15T07:44:11;9.98;;;7.28;;
21868;SDS011;11099;41.564;23.296;2024-02-15T07:46:41;8.95;;;7.75;;
21868;SDS011;11099;41.564;23.296;2024-02-15T07:49:08;9.85;;;7.03;;
21868;SDS011;11099;41.564;23.296;2024-02-15T07:51:35;12.80;;;7.85;;
21868;SDS011;11099;41.564;23.296;2024-02-15T07:56:46;9.25;;;7.05;;
21868;SDS011;11099;41.564;23.296;2024-02-15T07:59:19;10.18;;;7.68;;
21868;SDS011;11099;41.564;23.296;2024-02-15T08:01:45;9.80;;;7.28;;
21868;SDS011;11099;41.564;23.296;2024-02-15T08:04:16;11.43;;;7.13;;
21868;SDS011;11099;41.564;23.296;2024-02-15T08:06:45;9.73;;;7.38;;
21868;SDS011;11099;41.564;23.296;2024-02-15T08:09:16;10.30;;;6.95;;
21868;SDS011;11099;41.564;23.296;2024-02-15T08:11:45;11.52;;;7.32;;
21868;SDS011;11099;41.564;23.296;2024-02-15T08:14:16;14.85;;;8.65;;
21868;SDS011;11099;41.564;23.296;2024-02-15T08:16:43;9.00;;;6.93;;
21868;SDS011;11099;41.564;23.296;2024-02-15T08:19:13;9.30;;;7.07;;
21868;SDS011;11099;41.564;23.296;2024-02-15T08:21:48;9.98;;;7.65;;
21868;SDS011;11099;41.564;23.296;2024-02-15T08:24:23;8.68;;;6.70;;
21868;SDS011;11099;41.564;23.296;2024-02-15T08:26:51;9.13;;;6.40;;
21868;SDS011;11099;41.564;23.296;2024-02-15T08:29:26;12.13;;;6.90;;
21868;SDS011;11099;41.564;23.296;2024-02-15T08:32:02;9.23;;;6.65;;
21868;SDS011;11099;41.564;23.296;2024-02-15T08:34:31;10.63;;;7.10;;
21868;SDS011;11099;41.564;23.296;2024-02-15T08:36:58;7.80;;;5.80;;
21868;SDS011;11099;41.564;23.296;2024-02-15T08:39:26;8.05;;;5.82;;
21868;SDS011;11099;41.564;23.296;2024-02-15T08:41:54;9.98;;;6.38;;
21868;SDS011;11099;41.564;23.296;2024-02-15T08:44:24;8.18;;;6.25;;
21868;SDS011;11099;41.564;23.296;2024-02-15T08:49:26;8.25;;;5.95;;
21868;SDS011;11099;41.564;23.296;2024-02-15T08:51:56;6.15;;;5.55;;
21868;SDS011;11099;41.564;23.296;2024-02-15T08:54:28;9.40;;;5.75;;
21868;SDS011;11099;41.564;23.296;2024-02-15T08:57:02;6.57;;;5.57;;
21868;SDS011;11099;41.564;23.296;2024-02-15T08:59:45;8.45;;;6.07;;
21868;SDS011;11099;41.564;23.296;2024-02-15T09:02:14;9.55;;;5.53;;
21868;SDS011;11099;41.564;23.296;2024-02-15T09:04:40;8.38;;;5.20;;
21868;SDS011;11099;41.564;23.296;2024-02-15T09:07:12;7.93;;;5.78;;
21868;SDS011;11099;41.564;23.296;2024-02-15T09:10:43;7.32;;;5.60;;
21868;SDS011;11099;41.564;23.296;2024-02-15T09:13:32;5.65;;;5.13;;
21868;SDS011;11099;41.564;23.296;2024-02-15T09:16:22;7.10;;;5.20;;
21868;SDS011;11099;41.564;23.296;2024-02-15T09:19:01;8.05;;;4.78;;
21868;SDS011;11099;41.564;23.296;2024-02-15T09:30:52;5.80;;;5.00;;
21868;SDS011;11099;41.564;23.296;2024-02-15T09:33:26;5.40;;;4.40;;
21868;SDS011;11099;41.564;23.296;2024-02-15T09:36:00;7.20;;;4.82;;
21868;SDS011;11099;41.564;23.296;2024-02-15T09:38:29;5.80;;;5.20;;
21868;SDS011;11099;41.564;23.296;2024-02-15T09:40:58;5.63;;;5.03;;
21868;SDS011;11099;41.564;23.296;2024-02-15T09:46:09;6.80;;;4.70;;
21868;SDS011;11099;41.564;23.296;2024-02-15T09:48:37;7.78;;;4.60;;
21868;SDS011;11099;41.564;23.296;2024-02-15T09:51:18;5.45;;;4.63;;
21868;SDS011;11099;41.564;23.296;2024-02-15T13:22:27;2.95;;;2.65;;
21868;SDS011;11099;41.564;23.296;2024-02-15T13:28:30;3.97;;;3.10;;
21868;SDS011;11099;41.564;23.296;2024-02-15T13:48:07;3.47;;;3.00;;
21868;SDS011;11099;41.564;23.296;2024-02-15T14:56:41;4.38;;;3.20;;
21868;SDS011;11099;41.564;23.296;2024-02-15T15:35:27;4.55;;;2.92;;
21868;SDS011;11099;41.564;23.296;2024-02-15T15:41:14;5.32;;;3.08;;
21868;SDS011;11099;41.564;23.296;2024-02-15T15:43:45;4.85;;;3.17;;
21868;SDS011;11099;41.564;23.296;2024-02-15T15:48:59;3.20;;;2.90;;
21868;SDS011;11099;41.564;23.296;2024-02-15T15:51:31;3.58;;;2.80;;
21868;SDS011;11099;41.564;23.296;2024-02-15T15:56:42;3.35;;;2.80;;
21868;SDS011;11099;41.564;23.296;2024-02-15T16:01:56;4.13;;;3.10;;
21868;SDS011;11099;41.564;23.296;2024-02-15T16:08:20;3.72;;;2.95;;
21868;SDS011;11099;41.564;23.296;2024-02-15T16:10:54;3.45;;;2.90;;
21868;SDS011;11099;41.564;23.296;2024-02-15T16:13:22;5.05;;;3.17;;
21868;SDS011;11099;41.564;23.296;2024-02-15T16:15:57;7.10;;;2.90;;
21868;SDS011;11099;41.564;23.296;2024-02-15T16:18:30;5.15;;;2.92;;
21868;SDS011;11099;41.564;23.296;2024-02-15T16:26:58;4.95;;;2.80;;
21868;SDS011;11099;41.564;23.296;2024-02-15T16:29:36;3.30;;;3.00;;
21868;SDS011;11099;41.564;23.296;2024-02-15T16:32:11;3.70;;;2.70;;
21868;SDS011;11099;41.564;23.296;2024-02-15T16:34:42;3.40;;;2.88;;
21868;SDS011;11099;41.564;23.296;2024-02-15T16:45:09;4.28;;;3.17;;
21868;SDS011;11099;41.564;23.296;2024-02-15T16:48:16;3.72;;;2.80;;
21868;SDS011;11099;41.564;23.296;2024-02-15T16:54:07;4.95;;;3.28;;
21868;SDS011;11099;41.564;23.296;2024-02-15T16:56:34;4.38;;;3.30;;
21868;SDS011;11099;41.564;23.296;2024-02-15T16:59:13;3.22;;;2.92;;
21868;SDS011;11099;41.564;23.296;2024-02-15T17:01:47;8.38;;;3.63;;
21868;SDS011;11099;41.564;23.296;2024-02-15T17:04:18;5.13;;;3.88;;
21868;SDS011;11099;41.564;23.296;2024-02-15T17:06:45;9.13;;;4.28;;
21868;SDS011;11099;41.564;23.296;2024-02-15T17:09:17;5.32;;;3.45;;
21868;SDS011;11099;41.564;23.296;2024-02-15T17:11:52;3.60;;;3.30;;
21868;SDS011;11099;41.564;23.296;2024-02-15T17:14:24;4.03;;;3.17;;
21868;SDS011;11099;41.564;23.296;2024-02-15T17:16:56;3.97;;;3.45;;
21868;SDS011;11099;41.564;23.296;2024-02-15T17:19:25;7.57;;;3.95;;
21868;SDS011;11099;41.564;23.296;2024-02-15T17:21:56;5.60;;;3.75;;
21868;SDS011;11099;41.564;23.296;2024-02-15T17:24:35;9.55;;;6.45;;
21868;SDS011;11099;41.564;23.296;2024-02-15T17:30:11;12.73;;;7.82;;
21868;SDS011;11099;41.564;23.296;2024-02-15T17:33:06;9.10;;;4.50;;
21868;SDS011;11099;41.564;23.296;2024-02-15T17:35:40;7.78;;;4.88;;
21868;SDS011;11099;41.564;23.296;2024-02-15T17:38:39;7.57;;;5.43;;
21868;SDS011;11099;41.564;23.296;2024-02-15T17:41:24;34.28;;;19.90;;
21868;SDS011;11099;41.564;23.296;2024-02-15T17:44:02;26.75;;;15.75;;
21868;SDS011;11099;41.564;23.296;2024-02-15T17:46:31;14.10;;;8.38;;
21868;SDS011;11099;41.564;23.296;2024-02-15T17:49:04;8.77;;;6.43;;
21868;SDS011;11099;41.564;23.296;2024-02-15T17:51:34;6.07;;;5.47;;
21868;SDS011;11099;41.564;23.296;2024-02-15T17:54:06;11.23;;;6.40;;
21868;SDS011;11099;41.564;23.296;2024-02-15T17:56:34;6.93;;;5.40;;
21868;SDS011;11099;41.564;23.296;2024-02-15T17:59:02;7.90;;;5.72;;
21868;SDS011;11099;41.564;23.296;2024-02-15T18:01:36;7.85;;;5.82;;
21868;SDS011;11099;41.564;23.296;2024-02-15T18:04:05;5.45;;;4.95;;
21868;SDS011;11099;41.564;23.296;2024-02-15T18:06:35;7.82;;;5.25;;
21868;SDS011;11099;41.564;23.296;2024-02-15T18:09:09;7.72;;;4.72;;
21868;SDS011;11099;41.564;23.296;2024-02-15T18:12:05;5.13;;;3.92;;
21868;SDS011;11099;41.564;23.296;2024-02-15T18:14:48;5.72;;;4.05;;
21868;SDS011;11099;41.564;23.296;2024-02-15T18:17:26;3.80;;;3.35;;
21868;SDS011;11099;41.564;23.296;2024-02-15T18:20:25;6.97;;;4.28;;
21868;SDS011;11099;41.564;23.296;2024-02-15T18:23:11;9.23;;;4.50;;
21868;SDS011;11099;41.564;23.296;2024-02-15T18:25:42;6.18;;;4.22;;
21868;SDS011;11099;41.564;23.296;2024-02-15T18:28:12;8.10;;;4.35;;
21868;SDS011;11099;41.564;23.296;2024-02-15T18:47:16;12.38;;;7.70;;
21868;SDS011;11099;41.564;23.296;2024-02-15T18:49:47;6.30;;;5.70;;
21868;SDS011;11099;41.564;23.296;2024-02-15T19:05:35;6.40;;;4.78;;
21868;SDS011;11099;41.564;23.296;2024-02-15T19:43:34;7.05;;;5.35;;
21868;SDS011;11099;41.564;23.296;2024-02-15T19:53:52;6.57;;;5.40;;
21868;SDS011;11099;41.564;23.296;2024-02-15T19:56:27;8.82;;;5.53;;
21868;SDS011;11099;41.564;23.296;2024-02-15T20:38:44;9.18;;;6.13;;
21868;SDS011;11099;41.564;23.296;2024-02-15T20:41:54;9.77;;;6.50;;
21868;SDS011;11099;41.564;23.296;2024-02-15T20:45:17;8.60;;;6.35;;
21868;SDS011;11099;41.564;23.296;2024-02-15T20:48:08;11.38;;;6.03;;
21868;SDS011;11099;41.564;23.296;2024-02-15T20:55:52;8.70;;;6.40;;
21868;SDS011;11099;41.564;23.296;2024-02-15T21:09:21;8.35;;;5.90;;
21868;SDS011;11099;41.564;23.296;2024-02-15T21:11:53;8.10;;;5.65;;
21868;SDS011;11099;41.564;23.296;2024-02-15T21:20:42;6.20;;;5.60;;
21868;SDS011;11099;41.564;23.296;2024-02-15T21:23:40;8.95;;;5.57;;
21868;SDS011;11099;41.564;23.296;2024-02-15T21:26:10;7.63;;;6.03;;
21868;SDS011;11099;41.564;23.296;2024-02-15T21:28:38;8.43;;;6.40;;
21868;SDS011;11099;41.564;23.296;2024-02-15T21:44:12;10.88;;;6.57;;
21868;SDS011;11099;41.564;23.296;2024-02-15T21:46:48;7.60;;;6.57;;
21868;SDS011;11099;41.564;23.296;2024-02-15T21:49:33;8.05;;;5.80;;
21868;SDS011;11099;41.564;23.296;2024-02-15T21:52:11;7.97;;;6.25;;
21868;SDS011;11099;41.564;23.296;2024-02-15T21:54:39;8.25;;;6.32;;
21868;SDS011;11099;41.564;23.296;2024-02-15T21:57:17;6.72;;;6.00;;
21868;SDS011;11099;41.564;23.296;2024-02-15T21:59:48;8.93;;;6.00;;
21868;SDS011;11099;41.564;23.296;2024-02-15T22:02:28;7.32;;;5.43;;
21868;SDS011;11099;41.564;23.296;2024-02-15T22:05:02;8.73;;;5.45;;
21868;SDS011;11099;41.564;23.296;2024-02-15T22:07:29;11.43;;;5.75;;
21868;SDS011;11099;41.564;23.296;2024-02-15T22:10:18;6.97;;;5.75;;
21868;SDS011;11099;41.564;23.296;2024-02-15T22:12:51;6.97;;;5.63;;
21868;SDS011;11099;41.564;23.296;2024-02-15T22:15:31;11.18;;;7.60;;
21868;SDS011;11099;41.564;23.296;2024-02-15T22:18:09;10.50;;;7.53;;
21868;SDS011;11099;41.564;23.296;2024-02-15T22:20:59;9.93;;;6.75;;
21868;SDS011;11099;41.564;23.296;2024-02-15T22:23:30;7.65;;;5.38;;
21868;SDS011;11099;41.564;23.296;2024-02-15T22:26:22;6.57;;;5.55;;
21868;SDS011;11099;41.564;23.296;2024-02-15T22:44:58;14.27;;;8.30;;
21868;SDS011;11099;41.564;23.296;2024-02-15T22:51:03;7.05;;;5.80;;
21868;SDS011;11099;41.564;23.296;2024-02-15T22:59:38;8.02;;;5.65;;
21868;SDS011;11099;41.564;23.296;2024-02-15T23:02:16;8.88;;;5.25;;
21868;SDS011;11099;41.564;23.296;2024-02-15T23:04:48;7.95;;;5.97;;
21868;SDS011;11099;41.564;23.296;2024-02-15T23:07:27;7.85;;;5.38;;
21868;SDS011;11099;41.564;23.296;2024-02-15T23:09:54;9.95;;;7.13;;
21868;SDS011;11099;41.564;23.296;2024-02-15T23:12:25;10.13;;;6.75;;
21868;SDS011;11099;41.564;23.296;2024-02-15T23:14:59;7.72;;;5.57;;
21868;SDS011;11099;41.564;23.296;2024-02-15T23:21:11;6.68;;;5.93;;
21868;SDS011;11099;41.564;23.296;2024-02-15T23:23:39;7.55;;;6.40;;
21868;SDS011;11099;41.564;23.296;2024-02-15T23:26:10;7.80;;;6.25;;
21868;SDS011;11099;41.564;23.296;2024-02-15T23:28:39;8.10;;;5.93;;
21868;SDS011;11099;41.564;23.296;2024-02-15T23:31:09;8.10;;;6.60;;
21868;SDS011;11099;41.564;23.296;2024-02-15T23:33:40;9.27;;;6.15;;
21868;SDS011;11099;41.564;23.296;2024-02-15T23:42:14;9.45;;;5.90;;
21868;SDS011;11099;41.564;23.296;2024-02-15T23:51:09;11.35;;;7.15;;
21868;SDS011;11099;41.564;23.296;2024-02-15T23:53:41;8.98;;;6.45;;
21868;SDS011;11099;41.564;23.296;2024-02-15T23:58:39;9.25;;;6.35;;
